Portada
METAR-TAF:

METAR-TAF

Aeroports :

Belgaum, Índia

latitud: 15-51-33N, longitud: 74-37-03E, altitud: 758 m

Observació

L'informe es va fer fa 21 minuts, a les 06:00 UTC
Vent 8 kt del Est/Sud-Est
Temperatura 28°C
Humitat 37%
Pressió 1020 hPa
Visibilitat 10 km o més
Escasses núvols a una alçada de 1500 ft

METAR: VOBM 210600Z 11008KT 9999 FEW015 28/12 Q1020

Hora: 11:51 (06:21 UTC)

Pronòstic

L'informe es va fer fa 1 hora i 21 minuts, a les 05:00 UTC
Pronòstic vàlid del 21 a les 06 UTC al 21 a les 15 UTC
Vent 10 kt del Est/Sud-Est
Visibilitat: 6000 m
Escasses núvols a una alçada de 1500 ft

TAF: VOBM 210500Z 2106/2115 11010KT 6000 FEW015

Observacions i pronòstics meteorològics de més de 4000 aeroports (METAR i TAF).

Les estacions disponibles són els punts grocs i vermells al mapa.

Posi el ratolí al punt desitjat per veure el nom de l'estació.

Feu clic per veure les observacions i els pronòstics meteorològics.

Per canviar el mapa: feu clic els botons verds amb una creu de color negre per apropar; al botó verd amb un guió per allunyar la imatge; o en les fletxes verdes per a mapes adjacents.


METAR-TAF: